Карточка аэропорта UOOO

Внимание!
Информация на этой странице в стадии наполнения.
Если вы не увидели какой-то информации, или заметили неточность - пожалуйста сообщите нам!
Спасибо!
Команда RU-STAFF
Название аэропортаАлыкель
Название аэропорта (англ.)Alykel
Превышение574 ft. (175 m.)
Координаты69°19.02', 87°19.02'
Высота перехода1200m
Эшелон переходаQFE>744:FL60;744>QFE>717:FL70;717>QFE:FL80
Коды ответчика5401-5427
Зона ОрВДКрасноярск РПИ (UNKL)
Данные METARUOOO 161900Z 14002MPS 0100 R01/0450N -DZ FG VV001 08/08 Q1001 R01/CLRD60 NOSIG RMK QBB050 QFE736/0981
Проноз погоды (TAF)UOOO 161902Z 1619/1718 21003G08MPS 0300 FG VV002 BECMG 1702/1704 6000 SCT016 BECMG 1704/1706 03005G10MPS TEMPO 1704/1708 1500 BR SCT005 BKN016 BECMG 1708/1710 02011G17MPS
NOTAMshow/hide NOTAM
AWOS   TABLE

Информация о ВПП

ВПП Длина ВПП (м.) Покрытие Курс ВПП Частота ILS
193430Бетон193110.3
013430Бетон13109.5

Диспетчерские позиции

Позывной Наименование органа УВД Частота
UOOO_APPНорильск - Круг120.400
UOOO_GNDНорильск - Руление121.700
UOOO_TWRНорильск - Старт118.300



Спутниковое изображение